Time;durP1;ratioP1;P1;durP2;ratioP2;P2;SDS_P1;SDS_P2;PMS_P1;PMS_P2;Temp;Humidity;BMP_temperature;BMP_pressure;BME280_temperature;BME280_humidity;BME280_pressure;Samples;Min_cycle;Max_cycle;Signal;HPM_P1;HPM_P2
2021/12/16 00:08:23;;;;;;;6.20;4.40;;;6.40;78.40;;;;;;4994968;28;20027;-68
2021/12/16 00:11:00;;;;;;;6.17;3.97;;;6.50;78.00;;;;;;4994832;28;20030;-68
2021/12/16 00:34:48;;;;;;;7.13;5.17;;;6.20;79.30;;;;;;4994217;28;20399;-69
2021/12/16 00:37:14;;;;;;;5.70;4.47;;;6.10;79.30;;;;;;4994244;28;20478;-70
2021/12/16 00:39:41;;;;;;;6.33;4.53;;;6.10;79.40;;;;;;4994067;28;20149;-68
2021/12/16 00:42:25;;;;;;;5.90;4.17;;;6.10;79.00;;;;;;4993818;28;20398;-68
2021/12/16 00:45:08;;;;;;;8.30;5.60;;;6.10;79.30;;;;;;4993868;28;20069;-72
2021/12/16 00:47:47;;;;;;;10.00;6.93;;;6.00;78.80;;;;;;4994091;28;20034;-69
2021/12/16 00:55:55;;;;;;;7.43;5.47;;;5.50;80.40;;;;;;4993936;28;20091;-70
2021/12/16 00:58:28;;;;;;;7.90;5.93;;;5.40;80.50;;;;;;4993952;28;20022;-68
2021/12/16 01:01:10;;;;;;;9.13;6.20;;;5.30;81.30;;;;;;4993804;28;20697;-69
2021/12/16 01:06:36;;;;;;;11.67;8.60;;;5.10;81.70;;;;;;4993600;28;20038;-69
2021/12/16 01:42:02;;;;;;;16.60;9.57;;;4.50;83.70;;;;;;4999988;28;20031;-69
2021/12/16 01:57:20;;;;;;;9.37;6.53;;;3.90;85.80;;;;;;4999935;28;20038;-68
2021/12/16 01:59:44;;;;;;;8.17;6.07;;;3.80;85.70;;;;;;4996108;28;20404;-68
2021/12/16 02:07:57;;;;;;;8.27;6.40;;;3.70;87.10;;;;;;4999629;28;20439;-69
2021/12/16 02:10:29;;;;;;;8.73;5.97;;;3.60;87.50;;;;;;4998937;28;20034;-68
2021/12/16 02:13:28;;;;;;;8.57;6.03;;;3.60;87.70;;;;;;4999421;28;20030;-69
2021/12/16 02:37:33;;;;;;;6.83;5.40;;;4.10;84.20;;;;;;4999126;28;20042;-69
2021/12/16 02:40:00;;;;;;;7.63;5.13;;;4.20;83.90;;;;;;4999144;28;20042;-68
2021/12/16 02:42:36;;;;;;;8.77;6.10;;;4.30;83.60;;;;;;4999243;28;20048;-69
2021/12/16 02:50:18;;;;;;;7.20;5.37;;;4.00;84.80;;;;;;4996079;28;20045;-68
2021/12/16 02:52:45;;;;;;;9.43;5.90;;;3.90;84.90;;;;;;4996166;28;20030;-68
2021/12/16 02:55:13;;;;;;;9.23;5.63;;;3.80;85.70;;;;;;4995511;28;20073;-68
2021/12/16 02:57:47;;;;;;;8.37;5.70;;;3.90;85.30;;;;;;4994678;28;20452;-69
2021/12/16 03:00:15;;;;;;;7.47;5.57;;;3.90;85.20;;;;;;4995832;28;20031;-68
2021/12/16 03:02:44;;;;;;;7.23;5.07;;;3.80;85.10;;;;;;4995674;28;20026;-68
2021/12/16 03:05:11;;;;;;;8.53;6.07;;;3.70;85.50;;;;;;4996129;28;20105;-68
2021/12/16 03:07:37;;;;;;;8.13;5.47;;;3.60;86.20;;;;;;4996012;28;20026;-68
2021/12/16 03:18:44;;;;;;;9.30;6.03;;;3.50;87.50;;;;;;4995831;28;20124;-68
2021/12/16 03:21:24;;;;;;;8.00;5.40;;;3.50;87.40;;;;;;4995893;28;20110;-68
2021/12/16 03:31:52;;;;;;;9.83;5.90;;;3.40;87.80;;;;;;4995568;28;20129;-68
2021/12/16 03:40:00;;;;;;;8.17;6.03;;;3.30;89.40;;;;;;4995387;28;20383;-69
2021/12/16 03:42:43;;;;;;;11.90;5.77;;;3.40;90.00;;;;;;4994611;28;20046;-68
2021/12/16 03:48:06;;;;;;;8.32;5.40;;;3.40;90.10;;;;;;4995131;28;20096;-70
2021/12/16 03:50:33;;;;;;;7.73;5.13;;;3.50;89.70;;;;;;4995138;28;20023;-69
2021/12/16 03:52:59;;;;;;;8.07;5.13;;;3.60;89.20;;;;;;4995248;28;20164;-69
2021/12/16 03:55:25;;;;;;;8.50;5.63;;;3.50;89.10;;;;;;4995233;28;20517;-70
2021/12/16 03:57:51;;;;;;;8.17;5.60;;;3.60;89.40;;;;;;4994740;28;20054;-69
2021/12/16 04:00:22;;;;;;;11.00;5.70;;;3.50;89.30;;;;;;4994830;28;20029;-69
2021/12/16 04:02:48;;;;;;;8.90;5.63;;;3.40;88.40;;;;;;4994732;28;20084;-69
2021/12/16 04:05:16;;;;;;;8.80;6.00;;;3.40;88.80;;;;;;4994810;28;20018;-69
2021/12/16 04:07:43;;;;;;;10.03;6.07;;;3.40;89.00;;;;;;4995068;28;20109;-69
2021/12/16 04:10:15;;;;;;;7.70;5.40;;;3.40;89.00;;;;;;4994593;28;20517;-69
2021/12/16 04:12:41;;;;;;;9.83;6.20;;;3.40;89.50;;;;;;4994964;28;20467;-68
2021/12/16 04:15:08;;;;;;;8.03;5.43;;;3.30;89.40;;;;;;4994730;28;20029;-68
2021/12/16 04:17:35;;;;;;;7.47;5.50;;;3.30;89.30;;;;;;4994679;28;20027;-69
2021/12/16 04:20:06;;;;;;;8.80;5.30;;;3.30;88.40;;;;;;4994685;28;20026;-68
2021/12/16 04:22:38;;;;;;;8.23;5.43;;;3.30;88.70;;;;;;4994115;28;20019;-69
2021/12/16 04:25:08;;;;;;;7.13;5.30;;;3.30;88.40;;;;;;4994119;28;20113;-68
2021/12/16 04:27:35;;;;;;;7.87;5.67;;;3.30;88.40;;;;;;4994297;28;20027;-69
2021/12/16 04:30:02;;;;;;;7.60;5.37;;;3.20;88.40;;;;;;4994236;28;20029;-68
2021/12/16 04:32:28;;;;;;;8.33;5.67;;;3.20;88.30;;;;;;4994130;28;20050;-70
2021/12/16 04:34:55;;;;;;;7.60;5.40;;;3.10;88.40;;;;;;4994376;28;20019;-69
2021/12/16 04:37:21;;;;;;;7.37;5.07;;;3.10;88.70;;;;;;4994345;28;20026;-69
2021/12/16 04:39:46;;;;;;;9.23;5.77;;;3.10;89.20;;;;;;4994303;28;20028;-68
2021/12/16 04:42:14;;;;;;;8.13;4.80;;;3.20;88.70;;;;;;4994070;28;20050;-68
2021/12/16 04:44:41;;;;;;;6.97;4.67;;;3.40;87.60;;;;;;4994165;28;20026;-69
2021/12/16 04:47:08;;;;;;;8.47;5.17;;;3.30;87.40;;;;;;4993892;28;20022;-69
2021/12/16 04:49:35;;;;;;;9.23;5.00;;;3.20;87.80;;;;;;4994121;28;20092;-69
2021/12/16 04:52:06;;;;;;;7.03;5.20;;;3.30;88.00;;;;;;4993945;28;20073;-70
2021/12/16 04:54:31;;;;;;;9.63;4.80;;;3.20;87.80;;;;;;4993829;28;20030;-69
2021/12/16 04:56:58;;;;;;;13.03;4.70;;;3.20;88.00;;;;;;4993855;28;20081;-68
2021/12/16 04:59:26;;;;;;;7.27;4.27;;;3.10;88.40;;;;;;4993968;28;20456;-69
2021/12/16 05:01:59;;;;;;;8.57;4.93;;;3.10;88.70;;;;;;4993990;28;20083;-68
2021/12/16 05:04:24;;;;;;;;;;;3.10;88.60;;;;;;4994483;28;20482;-68
2021/12/16 05:06:51;;;;;;;9.43;5.00;;;3.10;88.80;;;;;;4993929;28;19906;-68
2021/12/16 05:09:48;;;;;;;7.47;4.70;;;2.90;89.50;;;;;;4993306;28;20037;-68
2021/12/16 05:12:05;;;;;;;9.83;5.03;;;3.10;88.90;;;;;;4993654;28;20474;-68
2021/12/16 05:14:31;;;;;;;6.73;4.67;;;3.10;88.20;;;;;;4993889;28;20073;-68
2021/12/16 05:16:57;;;;;;;8.03;5.10;;;3.10;87.80;;;;;;4993519;28;20034;-68
2021/12/16 05:19:23;;;;;;;7.20;4.93;;;3.00;87.80;;;;;;4993662;28;20442;-68
2021/12/16 05:21:57;;;;;;;10.30;5.33;;;3.10;87.70;;;;;;4993564;28;20101;-68
2021/12/16 05:24:25;;;;;;;9.80;5.50;;;3.10;87.40;;;;;;4976010;28;20023;-68
2021/12/16 05:27:00;;;;;;;8.57;5.60;;;3.00;87.70;;;;;;4993590;28;20109;-68
2021/12/16 05:29:26;;;;;;;9.87;5.87;;;3.10;87.50;;;;;;4993439;28;20505;-68
2021/12/16 05:31:53;;;;;;;10.53;5.10;;;3.20;86.70;;;;;;4993154;28;20035;-68
2021/12/16 05:34:20;;;;;;;9.50;5.87;;;3.20;86.40;;;;;;4993001;28;20483;-68
2021/12/16 05:36:47;;;;;;;9.73;6.40;;;3.10;87.00;;;;;;4993248;28;20447;-68
2021/12/16 05:39:15;;;;;;;10.30;5.17;;;2.90;87.90;;;;;;4993615;28;20026;-68
2021/12/16 05:41:42;;;;;;;8.93;6.33;;;2.90;88.60;;;;;;4993491;28;20042;-68
2021/12/16 05:44:08;;;;;;;12.83;7.10;;;2.80;88.60;;;;;;4993472;28;20046;-69
2021/12/16 05:46:34;;;;;;;12.17;7.20;;;2.90;89.00;;;;;;4993496;28;20038;-68
2021/12/16 05:49:01;;;;;;;11.27;7.37;;;2.90;89.10;;;;;;4993137;28;20103;-69
2021/12/16 05:51:31;;;;;;;9.53;6.53;;;3.00;89.40;;;;;;4993084;28;20042;-69
2021/12/16 05:53:58;;;;;;;10.07;7.47;;;3.00;89.40;;;;;;4993294;28;20026;-68
2021/12/16 05:56:24;;;;;;;10.27;6.37;;;3.00;89.80;;;;;;4993527;28;20034;-69
2021/12/16 05:58:50;;;;;;;12.20;6.57;;;3.00;89.80;;;;;;4993129;28;20113;-69
2021/12/16 06:01:27;;;;;;;9.70;7.40;;;2.90;89.70;;;;;;4992996;28;20027;-70
2021/12/16 06:03:53;;;;;;;13.57;7.43;;;2.90;90.00;;;;;;4992980;28;20372;-69
2021/12/16 06:06:20;;;;;;;9.50;6.83;;;2.90;90.20;;;;;;4975695;28;20034;-68
2021/12/16 06:08:47;;;;;;;12.20;6.97;;;2.90;90.20;;;;;;4993249;28;20022;-68
2021/12/16 06:11:22;;;;;;;9.33;6.83;;;3.10;90.10;;;;;;4993324;28;20066;-68
2021/12/16 06:22:35;;;;;;;11.07;6.90;;;3.10;89.60;;;;;;4993967;28;20096;-68
2021/12/16 06:27:51;;;;;;;8.30;6.40;;;3.10;90.20;;;;;;4996772;28;20452;-68
2021/12/16 06:30:24;;;;;;;9.53;6.87;;;3.20;90.00;;;;;;4996632;28;20438;-69
2021/12/16 06:32:50;;;;;;;;;;;3.30;89.10;;;;;;4996514;28;20573;-68
2021/12/16 06:35:16;;;;;;;11.07;6.63;;;3.30;89.20;;;;;;4996663;28;19910;-68
2021/12/16 06:37:42;;;;;;;8.07;6.30;;;3.30;89.20;;;;;;4996498;28;20424;-69
2021/12/16 06:40:09;;;;;;;9.80;7.23;;;3.30;89.10;;;;;;4996372;28;20050;-68
2021/12/16 06:42:38;;;;;;;8.80;6.47;;;3.40;88.90;;;;;;4996351;28;20463;-69
2021/12/16 06:45:10;;;;;;;13.63;6.63;;;3.50;87.80;;;;;;4996391;28;20475;-69
2021/12/16 06:48:12;;;;;;;12.27;6.70;;;3.50;87.50;;;;;;4996204;28;20031;-68
2021/12/16 06:53:18;;;;;;;10.33;6.77;;;3.40;88.30;;;;;;4996193;28;20030;-68
2021/12/16 06:55:51;;;;;;;9.45;6.80;;;3.30;88.90;;;;;;4996131;28;20034;-68
2021/12/16 06:58:28;;;;;;;;;;;3.30;89.30;;;;;;4994442;28;20037;-69
2021/12/16 07:01:06;;;;;;;13.27;8.17;;;3.20;89.70;;;;;;4995842;28;19906;-68
2021/12/16 07:03:53;;;;;;;11.80;6.40;;;3.20;89.80;;;;;;4996145;28;20031;-68
2021/12/16 07:06:27;;;;;;;11.90;6.40;;;3.30;89.10;;;;;;4995446;28;20030;-68
2021/12/16 07:08:58;;;;;;;11.97;6.63;;;3.40;88.10;;;;;;4995497;28;20034;-68
2021/12/16 07:11:25;;;;;;;11.70;6.73;;;3.50;87.40;;;;;;4995380;28;20066;-67
2021/12/16 07:14:00;;;;;;;9.47;6.77;;;3.50;87.10;;;;;;4994817;28;20057;-68
2021/12/16 07:16:29;;;;;;;11.00;6.57;;;3.60;87.70;;;;;;4993889;28;20034;-68
2021/12/16 07:18:58;;;;;;;11.53;7.17;;;3.40;88.10;;;;;;4995898;28;20035;-68
2021/12/16 07:21:23;;;;;;;11.77;7.17;;;3.40;89.50;;;;;;4995425;28;20053;-69
2021/12/16 07:23:50;;;;;;;9.33;6.83;;;3.30;89.70;;;;;;4995502;28;20467;-68
2021/12/16 07:26:16;;;;;;;15.50;10.43;;;3.30;90.00;;;;;;4995537;28;20531;-68
2021/12/16 07:28:42;;;;;;;17.00;10.10;;;3.30;89.90;;;;;;4995800;28;20104;-68
2021/12/16 07:31:08;;;;;;;16.10;9.20;;;3.40;90.00;;;;;;4995745;28;20525;-68
2021/12/16 07:33:34;;;;;;;15.27;9.53;;;3.50;89.70;;;;;;4995059;28;20058;-68
2021/12/16 07:36:02;;;;;;;13.47;9.07;;;3.50;90.00;;;;;;4995102;28;20487;-68
2021/12/16 07:38:29;;;;;;;13.47;8.73;;;3.60;90.20;;;;;;4995366;28;20019;-68
2021/12/16 07:40:57;;;;;;;16.13;8.33;;;3.60;90.40;;;;;;4995257;28;20014;-68
2021/12/16 07:46:10;;;;;;;16.73;8.27;;;3.80;90.00;;;;;;4995428;28;20037;-69
2021/12/16 07:48:36;;;;;;;22.03;7.63;;;3.90;89.60;;;;;;4995567;28;20054;-70
2021/12/16 07:51:04;;;;;;;22.27;7.37;;;4.10;89.60;;;;;;4995200;28;20034;-68
2021/12/16 07:53:31;;;;;;;18.53;8.23;;;4.20;88.60;;;;;;4995066;28;20057;-69
2021/12/16 07:55:57;;;;;;;14.17;8.33;;;4.40;87.50;;;;;;4994932;28;20026;-70
2021/12/16 07:58:23;;;;;;;13.33;8.70;;;4.50;87.30;;;;;;4995517;28;20030;-69
2021/12/16 08:00:52;;;;;;;11.70;8.57;;;4.60;86.80;;;;;;4995069;28;20109;-70
2021/12/16 08:03:18;;;;;;;12.27;7.03;;;4.80;85.50;;;;;;4995064;28;20117;-69
2021/12/16 08:05:55;;;;;;;13.00;7.80;;;4.90;84.80;;;;;;4994911;28;20077;-69
2021/12/16 08:08:22;;;;;;;14.33;8.17;;;5.00;85.20;;;;;;4977355;28;20029;-70
2021/12/16 08:10:50;;;;;;;13.87;8.07;;;5.10;85.00;;;;;;4994739;28;20041;-69
2021/12/16 08:13:16;;;;;;;15.50;8.23;;;5.10;84.90;;;;;;4994452;28;20134;-69
2021/12/16 08:15:43;;;;;;;20.57;10.73;;;5.10;85.00;;;;;;4994494;28;20019;-70
2021/12/16 08:18:08;;;;;;;20.20;11.13;;;5.10;85.90;;;;;;4993904;28;20023;-68
2021/12/16 08:20:34;;;;;;;17.50;10.77;;;5.20;85.00;;;;;;4993865;28;20026;-68
2021/12/16 08:23:00;;;;;;;17.90;11.10;;;5.20;85.30;;;;;;4994541;28;20109;-68
2021/12/16 08:25:28;;;;;;;19.03;10.30;;;5.30;86.10;;;;;;4992952;28;20018;-68
2021/12/16 08:27:55;;;;;;;17.80;10.63;;;5.40;86.40;;;;;;4994178;28;20046;-69
2021/12/16 08:30:25;;;;;;;20.00;11.00;;;5.60;85.80;;;;;;4993753;28;20026;-68
2021/12/16 08:32:51;;;;;;;15.27;9.57;;;5.60;85.70;;;;;;4975959;28;20511;-71
2021/12/16 08:35:18;;;;;;;19.07;10.47;;;5.60;84.70;;;;;;4991688;28;20018;-71
2021/12/16 08:37:44;;;;;;;15.50;10.30;;;5.70;84.60;;;;;;4993522;28;20479;-70
2021/12/16 08:40:15;;;;;;;11.97;8.77;;;5.70;84.30;;;;;;4993564;28;20110;-70
2021/12/16 08:42:41;;;;;;;15.17;9.40;;;5.90;83.80;;;;;;4993094;28;20038;-69
2021/12/16 08:45:12;;;;;;;13.53;9.43;;;6.00;83.50;;;;;;4993168;28;20023;-70
2021/12/16 08:47:38;;;;;;;18.67;9.63;;;6.00;83.20;;;;;;4992969;28;20030;-71
2021/12/16 08:50:06;;;;;;;16.73;9.20;;;6.10;83.20;;;;;;4993345;28;20018;-72
2021/12/16 08:52:32;;;;;;;17.37;8.93;;;6.20;82.90;;;;;;4993221;28;20491;-71
2021/12/16 08:54:59;;;;;;;14.97;9.83;;;6.20;83.00;;;;;;4992703;28;20084;-71
2021/12/16 08:57:26;;;;;;;28.17;11.80;;;6.30;83.10;;;;;;4993461;28;20058;-70
2021/12/16 08:59:52;;;;;;;19.50;12.93;;;6.30;83.00;;;;;;4994065;28;20375;-71
2021/12/16 09:02:19;;;;;;;22.50;12.77;;;6.40;82.70;;;;;;4994146;28;20033;-70
2021/12/16 09:04:45;;;;;;;22.70;12.93;;;6.40;82.80;;;;;;4994253;28;20057;-71
2021/12/16 09:07:12;;;;;;;26.37;12.97;;;6.50;82.30;;;;;;4993890;28;20022;-71
2021/12/16 09:09:39;;;;;;;27.13;13.87;;;6.50;83.20;;;;;;4993826;28;20105;-71
2021/12/16 09:12:36;;;;;;;22.10;13.27;;;6.70;82.90;;;;;;4993368;28;20077;-71
2021/12/16 09:15:01;;;;;;;19.53;11.67;;;6.70;82.50;;;;;;4993813;28;20034;-71
2021/12/16 09:17:26;;;;;;;18.73;12.63;;;6.90;82.50;;;;;;4993914;28;20018;-71
2021/12/16 09:19:54;;;;;;;28.27;15.57;;;7.00;81.40;;;;;;4994004;28;20034;-70
2021/12/16 09:22:22;;;;;;;27.03;13.37;;;7.00;82.20;;;;;;4993940;28;20387;-70
2021/12/16 09:24:49;;;;;;;19.50;11.60;;;7.20;81.70;;;;;;4994091;28;20038;-70
2021/12/16 09:27:16;;;;;;;18.57;10.83;;;7.30;81.10;;;;;;4993775;28;20026;-71
2021/12/16 09:29:43;;;;;;;22.67;10.90;;;7.40;80.40;;;;;;4993969;28;20049;-70
2021/12/16 09:32:09;;;;;;;17.23;8.97;;;7.50;79.60;;;;;;4993616;28;20394;-71
2021/12/16 09:34:36;;;;;;;14.73;9.10;;;7.60;79.80;;;;;;4993830;28;20036;-70
2021/12/16 09:37:02;;;;;;;13.20;8.30;;;7.70;79.60;;;;;;4993924;28;20563;-71
2021/12/16 09:39:28;;;;;;;10.20;7.30;;;7.80;78.50;;;;;;4993648;28;20041;-71
2021/12/16 09:41:57;;;;;;;12.80;7.07;;;7.80;79.10;;;;;;4993765;28;20027;-71
2021/12/16 09:44:25;;;;;;;12.13;7.10;;;7.80;77.80;;;;;;4993706;28;20076;-71
2021/12/16 09:46:55;;;;;;;12.63;7.00;;;7.90;77.80;;;;;;4993654;28;20030;-70
2021/12/16 09:49:21;;;;;;;12.13;7.53;;;8.00;77.40;;;;;;4993455;28;20030;-70
2021/12/16 09:51:49;;;;;;;12.33;7.23;;;8.10;76.80;;;;;;4993494;28;20038;-71
2021/12/16 09:54:19;;;;;;;9.00;5.93;;;8.20;76.80;;;;;;4993648;28;20027;-71
2021/12/16 09:56:47;;;;;;;8.53;6.13;;;8.20;76.10;;;;;;4996157;28;20030;-71
2021/12/16 09:59:15;;;;;;;9.73;5.50;;;8.30;75.40;;;;;;4997673;28;20463;-71
2021/12/16 10:01:44;;;;;;;7.97;6.07;;;8.40;74.50;;;;;;4997616;28;20475;-70
2021/12/16 10:04:13;;;;;;;7.20;5.30;;;8.40;73.80;;;;;;4997523;28;20045;-70
2021/12/16 10:06:42;;;;;;;10.57;5.40;;;8.50;74.00;;;;;;4998028;28;20367;-71
2021/12/16 10:09:09;;;;;;;8.90;5.30;;;8.60;74.10;;;;;;4997497;28;20038;-71
2021/12/16 10:11:44;;;;;;;10.57;5.73;;;8.70;74.10;;;;;;4997251;28;20034;-71
2021/12/16 10:19:24;;;;;;;6.30;4.33;;;8.90;72.50;;;;;;4997503;28;20091;-71
2021/12/16 10:21:51;;;;;;;5.17;3.70;;;9.00;71.80;;;;;;4997148;28;20022;-71
2021/12/16 10:24:26;;;;;;;6.13;4.27;;;9.10;71.30;;;;;;4997005;28;20096;-70
2021/12/16 10:27:14;;;;;;;4.03;3.27;;;9.20;71.40;;;;;;4997127;28;20513;-71
2021/12/16 10:29:56;;;;;;;4.67;2.73;;;9.30;71.30;;;;;;4997252;28;20021;-70
2021/12/16 10:32:44;;;;;;;5.37;2.50;;;9.30;70.50;;;;;;4996736;28;20038;-71
2021/12/16 10:35:26;;;;;;;3.77;2.30;;;9.40;69.80;;;;;;4996994;28;20034;-70
2021/12/16 10:37:57;;;;;;;1.77;1.52;;;9.50;68.00;;;;;;4996923;28;20053;-70
2021/12/16 10:40:40;;;;;;;4.73;2.13;;;9.60;67.60;;;;;;4997295;28;20349;-71
2021/12/16 10:43:23;;;;;;;2.25;1.48;;;9.70;67.40;;;;;;4996895;28;20026;-70
2021/12/16 10:45:59;;;;;;;1.77;1.37;;;9.90;66.60;;;;;;4996931;28;20092;-70
2021/12/16 10:48:42;;;;;;;2.50;1.67;;;10.00;66.70;;;;;;4996756;28;20068;-71
2021/12/16 10:51:16;;;;;;;;;;;10.00;65.70;;;;;;4997287;28;20083;-71
2021/12/16 10:53:59;;;;;;;4.15;2.33;;;10.10;64.80;;;;;;4996750;28;19906;-71
2021/12/16 10:56:37;;;;;;;3.30;2.47;;;10.20;66.00;;;;;;4996656;28;20042;-71
2021/12/16 10:59:25;;;;;;;4.90;2.93;;;10.30;66.50;;;;;;4996559;28;20077;-71
2021/12/16 11:01:59;;;;;;;7.70;3.10;;;10.40;65.70;;;;;;4996508;28;20538;-70
2021/12/16 11:04:36;;;;;;;3.90;3.07;;;10.40;65.90;;;;;;4996740;28;20050;-71
2021/12/16 11:07:11;;;;;;;4.10;2.90;;;10.50;65.60;;;;;;4996174;28;20105;-72
2021/12/16 11:09:39;;;;;;;4.27;2.57;;;10.60;66.00;;;;;;4996309;28;20387;-70
2021/12/16 11:12:19;;;;;;;4.30;2.63;;;10.70;65.50;;;;;;4996172;28;20414;-71
2021/12/16 11:14:50;;;;;;;3.30;2.30;;;10.70;64.80;;;;;;4996529;28;20054;-72
2021/12/16 11:17:18;;;;;;;5.03;2.37;;;10.80;64.50;;;;;;4996356;28;20027;-71
2021/12/16 11:19:49;;;;;;;2.60;2.03;;;10.90;64.50;;;;;;4996243;28;20026;-70
2021/12/16 11:22:23;;;;;;;2.63;2.10;;;11.00;64.30;;;;;;4996048;28;20038;-70
2021/12/16 11:24:50;;;;;;;2.72;2.30;;;11.10;62.20;;;;;;4995986;28;20104;-71
2021/12/16 11:27:52;;;;;;;3.40;2.53;;;11.10;63.80;;;;;;4996008;28;20037;-71
2021/12/16 11:30:25;;;;;;;3.00;2.30;;;11.20;62.70;;;;;;4980005;28;20046;-71
2021/12/16 11:32:53;;;;;;;4.47;2.80;;;11.20;63.00;;;;;;4995673;28;20059;-72
2021/12/16 11:35:36;;;;;;;4.05;2.15;;;11.30;62.70;;;;;;4996035;28;20022;-71
2021/12/16 11:38:30;;;;;;;2.67;2.30;;;11.30;62.70;;;;;;4995991;28;20513;-71
2021/12/16 11:40:58;;;;;;;5.15;2.60;;;11.40;62.10;;;;;;4982947;28;20050;-71
2021/12/16 11:43:37;;;;;;;4.15;2.47;;;11.40;63.20;;;;;;4995727;28;20034;-71
2021/12/16 11:46:13;;;;;;;3.00;2.40;;;11.50;62.50;;;;;;4995857;28;20513;-71
2021/12/16 11:48:40;;;;;;;3.05;2.42;;;11.60;61.90;;;;;;4995748;28;20105;-70
2021/12/16 11:51:14;;;;;;;3.40;2.50;;;11.60;60.40;;;;;;4995582;28;20486;-71
2021/12/16 11:53:46;;;;;;;2.92;2.35;;;11.50;61.00;;;;;;4995572;28;20352;-71
2021/12/16 11:56:12;;;;;;;3.55;2.40;;;11.50;62.40;;;;;;4995419;28;20018;-71
2021/12/16 11:58:42;;;;;;;3.53;2.45;;;11.50;62.80;;;;;;4995324;28;20113;-71
2021/12/16 12:01:16;;;;;;;4.07;2.63;;;11.60;62.10;;;;;;4995543;28;20077;-71
2021/12/16 12:03:42;;;;;;;4.50;2.60;;;11.60;61.80;;;;;;4995351;28;20038;-71
2021/12/16 12:06:21;;;;;;;4.13;2.20;;;11.60;62.60;;;;;;4995319;28;20054;-72
2021/12/16 12:08:49;;;;;;;2.35;1.80;;;11.60;62.20;;;;;;4995172;28;20053;-71
2021/12/16 12:11:17;;;;;;;4.38;1.60;;;11.60;61.40;;;;;;4995018;28;20498;-71
2021/12/16 12:13:47;;;;;;;5.07;1.70;;;11.50;60.90;;;;;;4995120;28;20026;-71
2021/12/16 12:16:26;;;;;;;2.05;1.40;;;11.50;60.60;;;;;;4994829;28;20034;-71
2021/12/16 12:18:55;;;;;;;4.63;1.60;;;11.40;60.70;;;;;;4994636;28;20022;-71
2021/12/16 12:21:29;;;;;;;4.72;1.48;;;11.40;60.80;;;;;;4994506;28;20058;-72
2021/12/16 12:23:58;;;;;;;4.03;1.67;;;11.40;61.40;;;;;;4995551;28;20022;-71
2021/12/16 12:26:26;;;;;;;2.67;1.55;;;11.40;61.10;;;;;;4995063;28;20545;-71
2021/12/16 12:28:56;;;;;;;2.67;1.58;;;11.30;60.60;;;;;;4994770;28;20032;-72
2021/12/16 12:31:25;;;;;;;2.05;1.50;;;11.30;60.70;;;;;;4976883;28;20502;-72
2021/12/16 12:33:51;;;;;;;2.40;1.40;;;11.30;61.20;;;;;;4994478;28;20065;-68
2021/12/16 12:36:19;;;;;;;6.68;2.22;;;11.30;60.20;;;;;;4994643;28;20026;-71
2021/12/16 12:38:46;;;;;;;3.30;1.65;;;11.30;60.70;;;;;;4994607;28;20376;-71
2021/12/16 12:41:12;;;;;;;2.03;1.50;;;11.30;60.70;;;;;;4994347;28;20153;-71
2021/12/16 12:43:38;;;;;;;5.60;1.70;;;11.30;60.10;;;;;;4994334;28;20076;-70
2021/12/16 12:46:07;;;;;;;3.97;1.60;;;11.30;60.20;;;;;;4994237;28;20425;-72
2021/12/16 12:48:36;;;;;;;2.25;1.50;;;11.40;60.30;;;;;;4994311;28;20026;-71
2021/12/16 12:51:04;;;;;;;2.03;1.30;;;11.40;61.30;;;;;;4994582;28;20053;-70
2021/12/16 12:53:37;;;;;;;2.60;1.60;;;11.40;60.00;;;;;;4994282;28;20081;-71
2021/12/16 12:56:17;;;;;;;2.17;1.27;;;11.40;59.80;;;;;;4994313;28;20030;-70
2021/12/16 12:59:06;;;;;;;1.90;1.40;;;11.30;59.80;;;;;;4994241;28;20533;-71
2021/12/16 13:01:37;;;;;;;3.43;1.43;;;11.30;60.00;;;;;;4994003;28;20023;-69
2021/12/16 13:04:12;;;;;;;2.35;1.45;;;11.20;59.60;;;;;;4994189;28;20034;-71
2021/12/16 13:07:10;;;;;;;3.10;1.50;;;11.20;60.40;;;;;;4994137;28;20049;-71
2021/12/16 13:09:49;;;;;;;2.83;1.40;;;11.10;59.90;;;;;;4993619;28;20035;-71
2021/12/16 13:12:23;;;;;;;3.73;1.50;;;11.10;59.60;;;;;;4993924;28;20398;-71
2021/12/16 13:14:51;;;;;;;1.80;1.50;;;11.10;60.10;;;;;;4993874;28;20506;-72
2021/12/16 13:23:30;;;;;;;3.70;1.70;;;11.10;60.90;;;;;;4994132;28;20113;-71
2021/12/16 13:31:22;;;;;;;1.80;1.40;;;11.00;60.10;;;;;;4992894;28;20438;-72
2021/12/16 13:33:54;;;;;;;2.33;1.60;;;11.00;60.50;;;;;;4992701;28;20050;-73
2021/12/16 13:36:42;;;;;;;3.72;1.73;;;10.90;60.40;;;;;;4992173;28;20023;-72
2021/12/16 13:39:11;;;;;;;3.47;2.20;;;10.90;61.30;;;;;;4991703;28;20394;-71
2021/12/16 13:41:56;;;;;;;4.77;2.00;;;10.90;60.50;;;;;;4991563;28;20030;-68
2021/12/16 13:44:46;;;;;;;2.40;1.67;;;10.80;61.20;;;;;;4993331;28;20085;-68
2021/12/16 13:47:40;;;;;;;2.63;1.70;;;10.80;60.90;;;;;;4992478;28;20073;-69
2021/12/16 14:00:03;;;;;;;5.07;1.63;;;10.60;61.40;;;;;;4992850;28;20065;-70
2021/12/16 14:01:54;;;;;;;2.93;1.77;;;10.60;61.40;;;;;;4992653;28;20038;-71
2021/12/16 14:10:16;;;;;;;2.87;1.70;;;10.50;62.00;;;;;;4991654;28;20034;-71
2021/12/16 14:50:39;;;;;;;2.03;1.40;;;10.10;61.60;;;;;;4995895;28;20444;-70
2021/12/16 14:53:28;;;;;;;4.83;1.70;;;10.10;61.90;;;;;;4978308;28;20042;-68
2021/12/16 14:56:00;;;;;;;4.07;1.90;;;10.00;62.70;;;;;;4995270;28;20023;-68
2021/12/16 14:58:26;;;;;;;4.87;2.07;;;10.00;62.90;;;;;;4995348;28;20479;-72
2021/12/16 15:00:57;;;;;;;3.50;1.87;;;9.90;62.70;;;;;;4995283;28;20113;-69
2021/12/16 15:03:29;;;;;;;4.83;1.50;;;9.90;62.70;;;;;;4995365;28;20018;-69
2021/12/16 15:05:58;;;;;;;3.03;1.70;;;9.80;62.60;;;;;;4995786;28;20068;-69
2021/12/16 15:08:43;;;;;;;4.50;1.80;;;9.80;62.40;;;;;;4995734;28;20056;-69
2021/12/16 15:11:14;;;;;;;3.97;1.90;;;9.80;62.30;;;;;;4995489;28;20110;-69
2021/12/16 15:13:47;;;;;;;3.33;1.93;;;9.80;62.80;;;;;;4995729;28;20030;-68
2021/12/16 15:16:44;;;;;;;3.27;1.90;;;9.80;62.70;;;;;;4996218;28;20018;-69
2021/12/16 15:45:02;;;;;;;4.73;2.00;;;9.40;63.60;;;;;;4995426;28;20041;-69
2021/12/16 15:47:28;;;;;;;3.37;2.00;;;9.40;63.70;;;;;;4994877;28;20490;-68
2021/12/16 15:49:56;;;;;;;2.50;1.93;;;9.30;64.20;;;;;;4994815;28;20053;-70
2021/12/16 15:52:22;;;;;;;4.17;2.23;;;9.30;64.20;;;;;;4993700;28;20065;-72
2021/12/16 15:54:51;;;;;;;4.77;2.73;;;9.30;64.40;;;;;;4993482;28;20053;-71
2021/12/16 15:57:23;;;;;;;4.80;2.97;;;9.20;64.50;;;;;;4994126;28;20142;-70
2021/12/16 15:59:50;;;;;;;3.57;2.70;;;9.20;64.90;;;;;;4994040;28;20112;-71
2021/12/16 16:02:19;;;;;;;7.57;3.00;;;9.20;64.90;;;;;;4994279;28;20022;-72
2021/12/16 16:04:45;;;;;;;5.10;2.70;;;9.10;65.60;;;;;;4992166;28;20027;-71
2021/12/16 16:07:14;;;;;;;5.63;3.00;;;9.00;65.80;;;;;;4992251;28;20038;-70
2021/12/16 16:09:43;;;;;;;4.53;2.77;;;9.00;65.60;;;;;;4993884;28;20058;-70
2021/12/16 16:12:15;;;;;;;6.00;2.70;;;9.00;65.40;;;;;;4993735;28;20044;-70
2021/12/16 16:14:46;;;;;;;4.45;2.78;;;9.00;66.10;;;;;;4994566;28;20025;-70
2021/12/16 16:17:17;;;;;;;4.47;2.70;;;8.90;66.10;;;;;;4995168;28;20431;-70
2021/12/16 16:19:45;;;;;;;5.43;2.73;;;8.90;66.50;;;;;;4994133;28;20371;-70
2021/12/16 16:22:11;;;;;;;6.03;3.07;;;8.70;66.50;;;;;;4976554;28;20057;-70
2021/12/16 16:24:41;;;;;;;5.70;2.67;;;8.70;67.00;;;;;;4994449;28;20058;-70
2021/12/16 16:27:17;;;;;;;5.13;2.70;;;8.60;67.00;;;;;;4994407;28;20471;-70
2021/12/16 16:29:49;;;;;;;7.00;4.80;;;8.60;67.40;;;;;;4994062;28;20402;-71
2021/12/16 16:32:15;;;;;;;5.93;4.22;;;8.50;67.70;;;;;;4994166;28;20482;-68
2021/12/16 16:34:53;;;;;;;9.23;5.03;;;8.50;67.80;;;;;;4994530;28;20030;-71
2021/12/16 16:37:32;;;;;;;7.80;4.07;;;8.40;68.20;;;;;;4994543;28;20037;-70
2021/12/16 16:40:10;;;;;;;4.47;3.50;;;8.30;68.40;;;;;;4994705;28;20026;-70
2021/12/16 16:42:40;;;;;;;4.40;3.40;;;8.30;68.40;;;;;;4994629;28;20546;-70
2021/12/16 16:45:10;;;;;;;8.27;4.37;;;8.20;68.90;;;;;;4994548;28;20022;-71
2021/12/16 16:47:47;;;;;;;6.80;4.50;;;8.20;69.20;;;;;;4994657;28;20026;-70
2021/12/16 16:50:14;;;;;;;5.73;3.93;;;8.10;69.20;;;;;;4994526;28;20022;-70
2021/12/16 16:52:47;;;;;;;5.70;3.80;;;8.10;69.40;;;;;;4994245;28;20038;-70
2021/12/16 16:55:19;;;;;;;;;;;8.00;69.30;;;;;;4995093;28;20507;-70
2021/12/16 16:58:06;;;;;;;5.03;3.90;;;8.00;70.00;;;;;;4994419;28;19913;-69
2021/12/16 17:00:44;;;;;;;6.83;3.50;;;8.00;69.80;;;;;;4994520;28;20258;-70
2021/12/16 17:03:13;;;;;;;5.00;3.63;;;8.00;70.20;;;;;;4994376;28;20494;-70
2021/12/16 17:05:46;;;;;;;4.60;3.43;;;7.90;70.00;;;;;;4993337;28;20038;-70
2021/12/16 17:08:16;;;;;;;5.20;3.37;;;7.90;70.00;;;;;;4994135;28;20034;-70
2021/12/16 17:10:59;;;;;;;6.37;3.57;;;7.90;70.40;;;;;;4993875;28;20034;-69
2021/12/16 17:18:49;;;;;;;6.80;3.70;;;7.90;69.90;;;;;;4994459;28;20045;-70
2021/12/16 17:21:23;;;;;;;5.03;3.30;;;7.90;69.90;;;;;;4993984;28;20371;-70
2021/12/16 17:24:00;;;;;;;5.37;3.63;;;7.80;69.50;;;;;;4994008;28;20049;-70
2021/12/16 17:26:38;;;;;;;5.00;3.30;;;7.80;69.50;;;;;;4993794;28;20018;-70
2021/12/16 17:29:10;;;;;;;4.87;3.63;;;7.70;70.30;;;;;;4993864;28;20022;-70
2021/12/16 17:31:42;;;;;;;6.00;3.83;;;7.60;70.10;;;;;;4993779;28;20085;-70